Time;durP1;ratioP1;P1;durP2;ratioP2;P2;SDS_P1;SDS_P2;PMS_P1;PMS_P2;Temp;Humidity;BMP_temperature;BMP_pressure;BME280_temperature;BME280_humidity;BME280_pressure;Samples;Min_cycle;Max_cycle;Signal;HPM_P1;HPM_P2
2022/03/25 00:00:24;;;;;;;3.67;3.38;;;20.30;34.70;;;;;;5094204;28;20052;-78
2022/03/25 00:02:50;;;;;;;3.72;3.40;;;20.30;34.80;;;;;;5076122;28;20482;-78
2022/03/25 00:05:16;;;;;;;3.30;3.00;;;20.30;34.80;;;;;;5076105;28;20500;-78
2022/03/25 00:07:41;;;;;;;3.33;2.97;;;20.30;34.80;;;;;;5094084;28;20048;-79
2022/03/25 00:10:07;;;;;;;3.33;3.03;;;20.30;34.80;;;;;;5094566;28;20059;-79
2022/03/25 00:12:33;;;;;;;3.47;3.17;;;20.30;34.80;;;;;;5094243;28;20567;-78
2022/03/25 00:14:59;;;;;;;4.38;3.20;;;20.30;34.80;;;;;;5075827;28;20151;-78
2022/03/25 00:17:25;;;;;;;3.65;3.30;;;20.30;34.80;;;;;;5074113;28;20056;-79
2022/03/25 00:19:51;;;;;;;3.50;3.20;;;20.30;34.80;;;;;;5094017;28;20052;-78
2022/03/25 00:22:17;;;;;;;3.78;3.42;;;20.30;34.80;;;;;;5094360;28;20059;-78
2022/03/25 00:24:42;;;;;;;3.63;3.33;;;20.30;34.80;;;;;;5094056;28;20135;-79
2022/03/25 00:27:09;;;;;;;3.88;3.58;;;20.30;34.80;;;;;;5093968;28;20507;-78
2022/03/25 00:29:35;;;;;;;3.00;2.78;;;20.30;34.80;;;;;;5093925;28;20508;-79
2022/03/25 00:32:02;;;;;;;3.55;3.25;;;20.30;34.80;;;;;;5075599;28;20052;-78
2022/03/25 00:34:28;;;;;;;3.35;3.05;;;20.30;34.80;;;;;;5093876;28;20393;-79
2022/03/25 00:36:54;;;;;;;3.60;3.30;;;20.30;34.80;;;;;;5094123;28;20047;-79
2022/03/25 00:39:19;;;;;;;3.42;3.13;;;20.30;34.80;;;;;;5093667;28;20052;-78
2022/03/25 00:41:45;;;;;;;4.05;3.10;;;20.30;34.90;;;;;;5093757;28;20083;-79
2022/03/25 00:44:10;;;;;;;3.60;2.97;;;20.30;34.90;;;;;;5056693;28;20056;-78
2022/03/25 00:46:37;;;;;;;4.20;3.80;;;20.20;34.80;;;;;;5075236;28;20059;-79
2022/03/25 00:49:04;;;;;;;3.75;3.45;;;20.30;34.90;;;;;;5074035;28;20396;-79
2022/03/25 00:51:29;;;;;;;4.20;3.80;;;20.20;34.80;;;;;;5093640;28;20048;-78
2022/03/25 00:53:55;;;;;;;3.65;3.35;;;20.30;34.90;;;;;;5075244;28;20055;-78
2022/03/25 00:56:21;;;;;;;2.97;2.75;;;20.20;34.80;;;;;;5058893;28;20056;-78
2022/03/25 00:58:47;;;;;;;3.88;3.50;;;20.20;34.80;;;;;;5074016;28;20075;-78
2022/03/25 01:01:15;;;;;;;3.85;3.45;;;20.30;34.90;;;;;;5093541;28;20052;-78
2022/03/25 01:03:40;;;;;;;3.50;3.17;;;20.30;34.90;;;;;;5093414;28;20052;-78
2022/03/25 01:06:08;;;;;;;3.53;3.22;;;20.20;34.80;;;;;;5093633;28;20048;-78
2022/03/25 01:08:35;;;;;;;3.53;3.05;;;20.20;34.80;;;;;;5075028;28;20096;-78
2022/03/25 01:11:01;;;;;;;4.07;3.45;;;20.20;34.80;;;;;;5093392;28;20051;-78
2022/03/25 01:13:32;;;;;;;3.67;3.38;;;20.20;34.80;;;;;;5074925;28;20541;-78
2022/03/25 01:15:57;;;;;;;;;;;20.20;34.80;;;;;;5093753;28;20402;-78
2022/03/25 01:18:23;;;;;;;3.72;3.20;;;20.20;34.80;;;;;;5074794;28;19916;-78
2022/03/25 01:20:50;;;;;;;3.85;3.47;;;20.20;34.80;;;;;;5073582;28;20095;-78
2022/03/25 01:23:17;;;;;;;4.35;3.22;;;20.30;34.90;;;;;;5074977;28;20048;-79
2022/03/25 01:25:46;;;;;;;3.78;3.47;;;20.20;34.80;;;;;;5093063;28;20052;-79
2022/03/25 01:28:13;;;;;;;3.63;3.30;;;20.20;34.80;;;;;;5058205;28;20059;-78
2022/03/25 01:30:40;;;;;;;3.60;3.30;;;20.20;34.80;;;;;;5073887;28;20515;-79
2022/03/25 01:33:06;;;;;;;3.72;3.30;;;20.20;34.80;;;;;;5073745;28;20045;-79
2022/03/25 01:35:32;;;;;;;3.63;3.33;;;20.20;34.80;;;;;;5074347;28;20176;-78
2022/03/25 01:37:57;;;;;;;4.10;3.70;;;20.20;34.90;;;;;;5092611;28;20059;-79
2022/03/25 01:40:26;;;;;;;3.70;3.40;;;20.20;34.80;;;;;;5056762;28;20053;-79
2022/03/25 01:42:51;;;;;;;5.57;3.45;;;20.20;34.90;;;;;;5074712;28;20522;-78
2022/03/25 01:45:32;;;;;;;3.47;3.17;;;20.20;34.80;;;;;;5073776;28;20447;-78
2022/03/25 01:47:59;;;;;;;3.33;3.08;;;20.20;34.90;;;;;;5092697;28;20130;-79
2022/03/25 01:50:25;;;;;;;3.50;3.20;;;20.20;34.80;;;;;;5074095;28;20048;-79
2022/03/25 01:52:52;;;;;;;3.70;3.40;;;20.20;35.40;;;;;;5073330;28;20052;-79
2022/03/25 01:55:21;;;;;;;3.92;3.53;;;20.20;34.80;;;;;;5092350;28;20044;-79
2022/03/25 01:57:48;;;;;;;3.60;3.30;;;20.20;34.80;;;;;;5092309;28;20087;-79
2022/03/25 02:00:17;;;;;;;3.55;3.25;;;20.20;34.80;;;;;;5073477;28;20044;-79
2022/03/25 02:02:49;;;;;;;3.35;3.08;;;20.20;34.80;;;;;;5092667;28;20092;-79
2022/03/25 02:05:16;;;;;;;4.10;3.75;;;20.20;34.80;;;;;;5073540;28;20048;-79
2022/03/25 02:07:41;;;;;;;3.75;3.45;;;20.20;34.80;;;;;;5096163;28;20449;-79
2022/03/25 02:10:08;;;;;;;4.90;3.38;;;20.20;34.80;;;;;;5076318;28;20397;-78
2022/03/25 02:12:35;;;;;;;3.78;3.40;;;20.20;34.80;;;;;;5077825;28;20503;-79
2022/03/25 02:15:02;;;;;;;3.55;3.25;;;20.20;34.80;;;;;;5077788;28;20056;-79
2022/03/25 02:17:29;;;;;;;4.70;3.80;;;20.20;34.90;;;;;;5077841;28;20095;-79
2022/03/25 02:19:56;;;;;;;3.42;3.13;;;20.20;34.90;;;;;;5077772;28;20056;-79
2022/03/25 02:22:22;;;;;;;3.83;3.40;;;20.20;34.90;;;;;;5077719;28;20094;-79
2022/03/25 02:24:49;;;;;;;4.10;3.70;;;20.20;34.90;;;;;;5077588;28;20055;-79
2022/03/25 02:27:17;;;;;;;3.88;3.45;;;20.20;34.90;;;;;;5078203;28;20436;-79
2022/03/25 02:29:45;;;;;;;3.65;3.30;;;20.20;34.90;;;;;;5077521;28;20056;-79
2022/03/25 02:32:12;;;;;;;3.47;3.17;;;20.20;34.90;;;;;;5075964;28;20143;-79
2022/03/25 02:34:38;;;;;;;3.70;3.40;;;20.10;34.80;;;;;;5077421;28;20549;-79
2022/03/25 02:37:05;;;;;;;3.72;3.42;;;20.20;34.90;;;;;;5077845;28;20064;-79
2022/03/25 02:39:31;;;;;;;4.53;3.72;;;20.20;34.90;;;;;;5076331;28;20079;-79
2022/03/25 02:41:58;;;;;;;3.72;3.38;;;20.10;34.80;;;;;;5077437;28;20535;-79
2022/03/25 02:44:24;;;;;;;4.25;3.35;;;20.10;34.80;;;;;;5077642;28;20104;-78
2022/03/25 02:46:50;;;;;;;4.10;3.70;;;20.10;34.80;;;;;;5077334;28;20488;-78
2022/03/25 02:49:18;;;;;;;3.92;3.63;;;20.10;34.90;;;;;;5077181;28;20139;-79
2022/03/25 02:51:43;;;;;;;3.55;3.25;;;20.10;34.90;;;;;;5095535;28;20404;-78
2022/03/25 02:54:09;;;;;;;3.50;3.20;;;20.10;34.90;;;;;;5095366;28;20044;-79
2022/03/25 02:56:34;;;;;;;3.67;3.38;;;20.10;34.90;;;;;;5076891;28;20147;-79
2022/03/25 02:59:00;;;;;;;4.32;3.92;;;20.10;34.90;;;;;;5095236;28;20060;-79
2022/03/25 03:01:26;;;;;;;4.20;3.80;;;20.10;34.80;;;;;;5095285;28;20044;-78
2022/03/25 03:03:53;;;;;;;3.88;3.47;;;20.10;34.90;;;;;;5095337;28;20082;-79
2022/03/25 03:06:19;;;;;;;4.10;3.70;;;20.10;34.90;;;;;;5077297;28;20048;-78
2022/03/25 03:08:44;;;;;;;4.03;3.65;;;20.10;34.90;;;;;;5076903;28;20142;-79
2022/03/25 03:11:11;;;;;;;3.85;3.55;;;20.10;34.90;;;;;;5095106;28;20067;-79
2022/03/25 03:13:36;;;;;;;4.00;3.60;;;20.10;34.90;;;;;;5095079;28;20134;-79
2022/03/25 03:16:02;;;;;;;4.25;3.75;;;20.10;34.90;;;;;;5095162;28;20079;-79
2022/03/25 03:18:28;;;;;;;4.00;3.60;;;20.10;34.80;;;;;;5094832;28;20060;-78
2022/03/25 03:20:53;;;;;;;4.32;3.50;;;20.10;34.90;;;;;;5094958;28;20500;-78
2022/03/25 03:23:19;;;;;;;4.05;3.75;;;20.10;34.80;;;;;;5076826;28;20555;-79
2022/03/25 03:25:46;;;;;;;4.32;3.70;;;20.10;34.80;;;;;;5094994;28;20105;-78
2022/03/25 03:28:11;;;;;;;3.75;3.45;;;20.10;34.80;;;;;;5094790;28;20082;-78
2022/03/25 03:30:37;;;;;;;4.03;3.63;;;20.20;34.90;;;;;;5076212;28;20090;-79
2022/03/25 03:33:04;;;;;;;3.67;3.38;;;20.10;34.70;;;;;;5074641;28;20049;-79
2022/03/25 03:35:32;;;;;;;4.13;3.72;;;20.10;34.80;;;;;;5075886;28;20507;-78
2022/03/25 03:37:57;;;;;;;3.80;3.50;;;20.10;34.80;;;;;;5094233;28;20059;-78
2022/03/25 03:40:23;;;;;;;4.18;3.78;;;20.10;34.80;;;;;;5094743;28;20399;-78
2022/03/25 03:42:49;;;;;;;3.72;3.42;;;20.10;34.80;;;;;;5094687;28;20060;-79
2022/03/25 03:45:15;;;;;;;3.67;3.38;;;20.10;34.80;;;;;;5094928;28;20110;-79
2022/03/25 03:47:41;;;;;;;4.00;3.60;;;20.20;34.80;;;;;;5094481;28;20044;-78
2022/03/25 03:50:11;;;;;;;4.25;3.47;;;20.20;34.70;;;;;;5076490;28;20063;-78
2022/03/25 03:52:38;;;;;;;4.10;3.70;;;20.20;34.70;;;;;;5094381;28;20052;-79
2022/03/25 03:55:05;;;;;;;4.38;3.97;;;20.20;34.60;;;;;;5075545;28;20048;-79
2022/03/25 03:57:31;;;;;;;3.90;3.58;;;20.30;34.50;;;;;;5094248;28;20086;-79
2022/03/25 03:59:57;;;;;;;4.25;3.85;;;20.30;34.50;;;;;;5076824;28;20059;-79
2022/03/25 04:02:23;;;;;;;4.55;3.95;;;20.40;34.50;;;;;;5076206;28;20496;-79
2022/03/25 04:04:48;;;;;;;4.72;4.18;;;20.40;34.40;;;;;;5076644;28;20521;-79
2022/03/25 04:07:15;;;;;;;4.30;3.88;;;20.40;34.40;;;;;;5094290;28;20449;-79
2022/03/25 04:09:41;;;;;;;3.63;3.30;;;20.40;34.30;;;;;;5094293;28;20455;-79
2022/03/25 04:12:09;;;;;;;4.00;3.60;;;20.50;34.20;;;;;;5094261;28;20496;-79
2022/03/25 04:14:35;;;;;;;3.95;3.42;;;20.60;34.30;;;;;;5094120;28;20455;-78
2022/03/25 04:17:01;;;;;;;4.13;3.55;;;20.60;34.20;;;;;;5076178;28;20056;-78
2022/03/25 04:19:28;;;;;;;3.53;3.22;;;20.60;34.10;;;;;;5094102;28;20499;-79
2022/03/25 04:21:54;;;;;;;3.72;3.40;;;20.60;34.10;;;;;;5075515;28;20059;-79
2022/03/25 04:24:19;;;;;;;3.95;3.65;;;20.60;34.00;;;;;;5076137;28;20048;-79
2022/03/25 04:26:45;;;;;;;4.07;3.67;;;20.70;34.00;;;;;;5094067;28;20067;-79
2022/03/25 04:29:11;;;;;;;4.30;3.90;;;20.70;33.90;;;;;;5093459;28;20047;-79
2022/03/25 04:31:36;;;;;;;3.67;3.38;;;20.80;33.90;;;;;;5075762;28;20055;-79
2022/03/25 04:34:02;;;;;;;4.10;3.70;;;20.80;33.90;;;;;;5075643;28;20106;-79
2022/03/25 04:36:27;;;;;;;4.22;3.80;;;20.80;33.90;;;;;;5094137;28;20373;-79
2022/03/25 04:38:53;;;;;;;3.80;3.50;;;20.90;33.90;;;;;;5093632;28;20131;-79
2022/03/25 04:41:19;;;;;;;4.30;3.90;;;20.90;33.80;;;;;;5093825;28;20075;-79
2022/03/25 04:43:44;;;;;;;4.35;3.95;;;21.00;33.80;;;;;;5093704;28;20048;-79
2022/03/25 04:46:10;;;;;;;4.03;3.60;;;21.00;33.70;;;;;;5093769;28;20416;-79
2022/03/25 04:48:37;;;;;;;3.88;3.47;;;21.00;33.60;;;;;;5075438;28;20043;-79
2022/03/25 04:51:03;;;;;;;3.78;3.47;;;21.10;33.60;;;;;;5075433;28;20178;-79
2022/03/25 04:53:28;;;;;;;4.13;3.83;;;21.10;33.60;;;;;;5093491;28;20444;-79
2022/03/25 04:55:54;;;;;;;5.45;3.90;;;21.10;33.50;;;;;;5093523;28;20522;-79
2022/03/25 04:58:21;;;;;;;3.72;3.42;;;21.10;33.50;;;;;;5075234;28;20056;-79
2022/03/25 05:00:48;;;;;;;3.95;3.53;;;21.20;33.60;;;;;;5093440;28;20052;-79
2022/03/25 05:03:14;;;;;;;4.00;3.60;;;21.20;33.60;;;;;;5093459;28;20090;-78
2022/03/25 05:05:42;;;;;;;4.55;3.78;;;21.20;33.60;;;;;;5093299;28;20083;-79
2022/03/25 05:08:09;;;;;;;4.70;4.30;;;21.20;33.60;;;;;;5073673;28;20052;-79
2022/03/25 05:10:34;;;;;;;3.92;3.55;;;21.20;33.50;;;;;;5093013;28;20052;-79
2022/03/25 05:13:01;;;;;;;3.88;3.50;;;21.20;33.50;;;;;;5074071;28;20048;-79
2022/03/25 05:15:26;;;;;;;4.18;3.78;;;21.20;33.60;;;;;;5093191;28;20071;-78
2022/03/25 05:17:52;;;;;;;4.13;3.78;;;21.20;33.50;;;;;;5074442;28;20094;-78
2022/03/25 05:20:20;;;;;;;4.13;3.72;;;21.20;33.60;;;;;;5073610;28;20053;-78
2022/03/25 05:22:47;;;;;;;4.28;3.88;;;21.10;33.60;;;;;;5093059;28;20060;-78
2022/03/25 05:25:12;;;;;;;4.20;3.65;;;21.10;33.60;;;;;;5093096;28;20098;-78
2022/03/25 05:27:47;;;;;;;4.10;3.70;;;21.10;33.60;;;;;;5093054;28;20523;-78
2022/03/25 05:30:13;;;;;;;4.05;3.55;;;21.10;33.60;;;;;;5092742;28;20419;-79
2022/03/25 05:32:39;;;;;;;4.10;3.70;;;21.10;33.60;;;;;;5074787;28;20142;-79
2022/03/25 05:35:06;;;;;;;4.32;3.92;;;21.10;33.70;;;;;;5074631;28;20084;-78
2022/03/25 05:37:32;;;;;;;4.18;3.72;;;21.00;33.60;;;;;;5092877;28;20082;-78
2022/03/25 05:39:58;;;;;;;3.67;3.33;;;21.10;33.70;;;;;;5092418;28;20133;-78
2022/03/25 05:42:25;;;;;;;5.57;4.15;;;21.10;33.70;;;;;;5092609;28;20055;-78
2022/03/25 05:44:51;;;;;;;4.20;3.40;;;21.10;33.70;;;;;;5092834;28;20044;-79
2022/03/25 05:47:16;;;;;;;4.28;3.88;;;21.10;33.70;;;;;;5092790;28;20487;-79
2022/03/25 05:49:42;;;;;;;4.53;3.85;;;21.10;33.70;;;;;;5092635;28;20052;-79
2022/03/25 05:52:08;;;;;;;4.15;3.75;;;21.10;33.60;;;;;;5092719;28;20051;-78
2022/03/25 05:54:33;;;;;;;3.92;3.30;;;21.10;33.60;;;;;;5092455;28;20044;-78
2022/03/25 05:56:59;;;;;;;3.90;3.60;;;21.10;33.60;;;;;;5074544;28;20084;-78
2022/03/25 05:59:24;;;;;;;4.40;4.00;;;21.20;33.50;;;;;;5092722;28;20524;-79
2022/03/25 06:01:50;;;;;;;4.85;4.45;;;21.20;33.50;;;;;;5092511;28;20048;-79
2022/03/25 06:04:15;;;;;;;4.25;3.85;;;21.20;33.40;;;;;;5074295;28;20056;-79
2022/03/25 06:06:41;;;;;;;4.28;3.88;;;21.20;33.40;;;;;;5092543;28;20127;-78
2022/03/25 06:09:06;;;;;;;4.20;3.80;;;21.20;33.40;;;;;;5092370;28;20048;-79
2022/03/25 06:11:32;;;;;;;4.00;3.60;;;21.20;33.40;;;;;;5092373;28;20067;-78
2022/03/25 06:13:57;;;;;;;4.22;3.83;;;21.30;33.40;;;;;;5092342;28;20044;-79
2022/03/25 06:16:23;;;;;;;4.45;4.05;;;21.30;33.30;;;;;;5092232;28;20059;-78
2022/03/25 06:18:49;;;;;;;5.30;4.20;;;21.30;33.30;;;;;;5073249;28;20048;-79
2022/03/25 06:21:16;;;;;;;5.15;4.65;;;21.40;33.30;;;;;;5092600;28;20494;-78
2022/03/25 06:23:42;;;;;;;4.15;3.75;;;21.40;33.30;;;;;;5092298;28;20047;-79
2022/03/25 06:26:07;;;;;;;4.38;3.97;;;21.40;33.30;;;;;;5092249;28;20052;-79
2022/03/25 06:28:33;;;;;;;3.85;3.45;;;21.40;33.20;;;;;;5073800;28;20400;-79
2022/03/25 06:30:59;;;;;;;4.53;4.13;;;21.50;33.20;;;;;;5092176;28;20090;-79
2022/03/25 06:33:25;;;;;;;4.40;4.00;;;21.50;33.10;;;;;;5057141;28;20059;-78
2022/03/25 06:35:52;;;;;;;4.10;3.70;;;21.60;33.00;;;;;;5057810;28;20051;-79
2022/03/25 06:38:19;;;;;;;4.10;3.42;;;21.60;33.00;;;;;;5073819;28;20080;-79
2022/03/25 06:40:45;;;;;;;4.80;4.18;;;21.60;32.90;;;;;;5092132;28;20056;-78
2022/03/25 06:43:10;;;;;;;4.47;4.07;;;21.70;32.90;;;;;;5092480;28;20464;-79
2022/03/25 06:45:36;;;;;;;4.97;3.60;;;21.70;32.80;;;;;;5073782;28;20416;-79
2022/03/25 06:48:02;;;;;;;4.85;3.97;;;21.70;32.80;;;;;;5055501;28;20052;-79
2022/03/25 06:50:28;;;;;;;4.15;3.70;;;21.80;32.80;;;;;;5091834;28;20479;-79
2022/03/25 06:52:54;;;;;;;4.35;3.95;;;21.80;32.70;;;;;;5075538;28;20087;-79
2022/03/25 06:55:20;;;;;;;4.53;4.13;;;21.80;32.70;;;;;;5075809;28;20071;-79
2022/03/25 06:57:50;;;;;;;4.18;3.83;;;21.90;32.70;;;;;;5075335;28;20461;-78
2022/03/25 07:00:17;;;;;;;4.25;3.80;;;21.90;32.60;;;;;;5073214;28;20509;-78
2022/03/25 07:02:43;;;;;;;3.97;3.55;;;21.90;32.50;;;;;;5095242;28;20056;-79
2022/03/25 07:05:13;;;;;;;3.88;3.58;;;22.00;32.50;;;;;;5095118;28;20052;-78
2022/03/25 07:07:40;;;;;;;4.43;4.03;;;22.00;32.50;;;;;;5077370;28;20101;-78
2022/03/25 07:10:09;;;;;;;4.15;3.75;;;22.00;32.40;;;;;;5095002;28;20185;-79
2022/03/25 07:12:37;;;;;;;4.13;3.72;;;22.10;32.40;;;;;;5076923;28;20059;-79
2022/03/25 07:15:04;;;;;;;4.75;4.28;;;22.10;32.40;;;;;;5076502;28;20051;-78
2022/03/25 07:17:30;;;;;;;4.40;4.00;;;22.10;32.30;;;;;;5094961;28;20059;-79
2022/03/25 07:19:56;;;;;;;4.82;4.32;;;22.20;32.30;;;;;;5094814;28;20123;-79
2022/03/25 07:22:21;;;;;;;4.60;3.88;;;22.20;32.20;;;;;;5076456;28;20058;-79
2022/03/25 07:24:47;;;;;;;4.40;4.00;;;22.30;32.20;;;;;;5094651;28;20040;-79
2022/03/25 07:27:12;;;;;;;4.43;4.03;;;22.30;32.10;;;;;;5095137;28;20496;-79
2022/03/25 07:29:38;;;;;;;4.93;4.40;;;22.30;32.10;;;;;;5076407;28;20522;-79
2022/03/25 07:32:04;;;;;;;5.70;4.47;;;22.30;32.00;;;;;;5076864;28;20135;-79
2022/03/25 07:34:31;;;;;;;4.10;3.70;;;22.40;32.10;;;;;;5076317;28;20560;-79
2022/03/25 07:36:57;;;;;;;4.57;4.13;;;22.40;32.00;;;;;;5094461;28;20058;-79
2022/03/25 07:39:23;;;;;;;4.15;3.75;;;22.40;32.10;;;;;;5094375;28;20051;-79
2022/03/25 07:41:48;;;;;;;4.40;4.00;;;22.40;32.00;;;;;;5094442;28;20454;-79
2022/03/25 07:44:14;;;;;;;4.38;3.97;;;22.40;32.00;;;;;;5094398;28;20048;-78
2022/03/25 07:46:40;;;;;;;4.50;4.10;;;22.40;32.10;;;;;;5094452;28;20052;-79
2022/03/25 07:49:06;;;;;;;4.22;3.83;;;22.40;32.10;;;;;;5094487;28;20055;-79
2022/03/25 07:51:32;;;;;;;4.25;3.83;;;22.30;32.00;;;;;;5094604;28;20480;-79
2022/03/25 07:53:57;;;;;;;5.00;4.50;;;22.30;32.60;;;;;;5094265;28;20048;-79
2022/03/25 07:56:23;;;;;;;4.18;3.78;;;22.40;32.10;;;;;;5094317;28;20059;-79
2022/03/25 07:58:49;;;;;;;4.15;3.75;;;22.40;32.10;;;;;;5094003;28;20130;-79
2022/03/25 08:01:15;;;;;;;4.45;3.90;;;22.40;32.10;;;;;;5059202;28;20113;-79
2022/03/25 08:03:40;;;;;;;4.18;3.80;;;22.40;32.10;;;;;;5074786;28;20056;-79
2022/03/25 08:06:08;;;;;;;4.93;4.07;;;22.40;32.10;;;;;;5093961;28;20093;-79
2022/03/25 08:08:35;;;;;;;4.53;4.03;;;22.40;32.10;;;;;;5093922;28;20086;-79
2022/03/25 08:11:00;;;;;;;4.13;3.83;;;22.40;32.10;;;;;;5093918;28;20059;-79
2022/03/25 08:13:27;;;;;;;4.85;4.40;;;22.30;32.10;;;;;;5093973;28;20052;-79
2022/03/25 08:15:54;;;;;;;4.18;3.78;;;22.30;32.10;;;;;;5093864;28;20052;-79
2022/03/25 08:18:21;;;;;;;4.88;4.47;;;22.30;32.10;;;;;;5093693;28;20055;-79
2022/03/25 08:20:48;;;;;;;4.38;3.97;;;22.30;32.10;;;;;;5093876;28;20143;-79
2022/03/25 08:27:48;;;;;;;4.30;3.95;;;22.30;32.10;;;;;;5093647;28;20048;-79
2022/03/25 08:29:03;;;;;;;4.95;4.45;;;22.30;32.20;;;;;;5093746;28;20044;-79
2022/03/25 08:31:29;;;;;;;4.00;3.65;;;22.30;32.20;;;;;;5093751;28;20059;-79
2022/03/25 08:33:55;;;;;;;4.60;3.80;;;22.30;32.20;;;;;;5075321;28;20047;-79
2022/03/25 08:36:21;;;;;;;3.92;3.53;;;22.20;32.20;;;;;;5075627;28;20094;-79
2022/03/25 08:38:46;;;;;;;4.28;3.88;;;22.20;32.20;;;;;;5093268;28;20048;-79
2022/03/25 08:41:12;;;;;;;4.65;4.25;;;22.20;32.20;;;;;;5093347;28;20059;-79
2022/03/25 08:43:38;;;;;;;3.65;3.35;;;22.20;32.30;;;;;;5093493;28;20480;-79
2022/03/25 08:46:05;;;;;;;4.55;4.15;;;22.20;32.30;;;;;;5093454;28;20446;-79
2022/03/25 08:48:31;;;;;;;5.20;4.70;;;22.20;32.30;;;;;;5092983;28;20056;-79
2022/03/25 08:50:57;;;;;;;4.20;3.80;;;22.10;32.30;;;;;;5075758;28;20055;-79
2022/03/25 08:53:23;;;;;;;4.20;3.80;;;22.10;32.40;;;;;;5075111;28;20113;-79
2022/03/25 08:55:49;;;;;;;4.63;4.22;;;22.10;32.50;;;;;;5093526;28;20044;-79
2022/03/25 08:58:15;;;;;;;3.90;3.58;;;22.00;32.40;;;;;;5093127;28;20073;-79
2022/03/25 09:00:41;;;;;;;4.43;4.03;;;22.00;32.60;;;;;;5093026;28;20052;-79
2022/03/25 09:03:07;;;;;;;4.80;4.30;;;22.00;32.60;;;;;;5092975;28;20139;-79
2022/03/25 09:05:32;;;;;;;4.25;3.85;;;21.90;32.60;;;;;;5093043;28;20113;-79
2022/03/25 09:07:58;;;;;;;4.32;3.75;;;21.90;32.70;;;;;;5092839;28;20456;-79
2022/03/25 09:10:24;;;;;;;4.03;3.63;;;21.90;32.70;;;;;;5073975;28;20056;-79
2022/03/25 09:12:50;;;;;;;5.50;3.97;;;21.90;32.70;;;;;;5092946;28;20055;-79
2022/03/25 09:15:16;;;;;;;4.90;3.90;;;21.90;32.70;;;;;;5092676;28;20044;-79
2022/03/25 09:17:46;;;;;;;4.53;4.13;;;21.90;32.80;;;;;;5073618;28;20055;-79
2022/03/25 09:20:13;;;;;;;4.55;4.15;;;21.90;32.80;;;;;;5092536;28;20490;-79
2022/03/25 09:22:39;;;;;;;4.95;4.45;;;21.80;32.80;;;;;;5092997;28;20090;-79
2022/03/25 09:25:07;;;;;;;3.97;3.67;;;21.90;32.90;;;;;;5072535;28;20049;-79
2022/03/25 09:27:32;;;;;;;4.35;3.92;;;21.80;32.80;;;;;;5092841;28;20074;-79
2022/03/25 09:29:58;;;;;;;4.63;4.22;;;21.80;32.80;;;;;;5057720;28;20047;-79
2022/03/25 09:32:24;;;;;;;4.47;4.07;;;21.80;32.80;;;;;;5074891;28;20058;-79
2022/03/25 09:37:35;;;;;;;4.47;4.00;;;21.80;32.90;;;;;;5092737;28;20040;-79
2022/03/25 09:40:00;;;;;;;4.75;4.35;;;21.80;32.90;;;;;;5073716;28;20048;-79
2022/03/25 09:42:27;;;;;;;4.95;4.38;;;21.80;32.90;;;;;;5073305;28;20052;-79
2022/03/25 09:44:53;;;;;;;4.75;4.15;;;21.80;32.90;;;;;;5092643;28;20055;-79
2022/03/25 09:47:20;;;;;;;4.47;4.07;;;21.80;32.90;;;;;;5074394;28;20067;-79
2022/03/25 09:49:46;;;;;;;4.40;4.00;;;21.80;32.90;;;;;;5092456;28;20078;-79
2022/03/25 09:52:12;;;;;;;4.30;3.75;;;21.70;32.90;;;;;;5092569;28;20044;-79
2022/03/25 09:54:37;;;;;;;4.45;4.05;;;21.80;32.90;;;;;;5092328;28;20384;-79
2022/03/25 09:57:04;;;;;;;4.90;4.25;;;21.80;32.90;;;;;;5057593;28;20138;-79
2022/03/25 09:59:30;;;;;;;4.85;4.32;;;21.80;32.90;;;;;;5092312;28;20117;-78
2022/03/25 10:01:55;;;;;;;4.13;3.72;;;21.80;32.90;;;;;;5092514;28;20047;-78
2022/03/25 10:04:43;;;;;;;4.72;4.32;;;21.80;32.90;;;;;;5074061;28;20079;-79
2022/03/25 10:07:22;;;;;;;4.55;4.15;;;21.80;33.00;;;;;;5092236;28;20536;-79
2022/03/25 10:09:49;;;;;;;4.50;4.10;;;21.80;33.00;;;;;;5072026;28;20060;-78
2022/03/25 10:12:34;;;;;;;5.07;4.63;;;21.70;33.00;;;;;;5092190;28;20056;-78
2022/03/25 10:15:13;;;;;;;5.03;4.53;;;21.70;33.00;;;;;;5072449;28;20049;-78
2022/03/25 10:17:50;;;;;;;4.75;4.35;;;21.70;32.90;;;;;;5057272;28;20044;-79
2022/03/25 10:20:17;;;;;;;4.85;4.35;;;21.70;32.90;;;;;;5072585;28;20109;-79
2022/03/25 10:23:01;;;;;;;4.40;4.00;;;21.70;32.90;;;;;;5091996;28;20511;-78
2022/03/25 10:25:59;;;;;;;4.07;3.70;;;21.70;32.90;;;;;;5073667;28;20051;-78
2022/03/25 10:28:28;;;;;;;4.60;4.20;;;21.70;33.00;;;;;;5077079;28;20062;-78
2022/03/25 10:30:57;;;;;;;4.65;4.15;;;21.70;32.90;;;;;;5095356;28;20076;-78
2022/03/25 10:33:29;;;;;;;4.57;4.15;;;21.80;33.00;;;;;;5095375;28;20052;-78
2022/03/25 10:36:09;;;;;;;4.45;4.05;;;21.70;32.90;;;;;;5095670;28;20056;-79
2022/03/25 10:38:49;;;;;;;4.22;3.83;;;21.70;32.90;;;;;;5076215;28;20059;-78
2022/03/25 10:41:17;;;;;;;4.43;3.97;;;21.70;33.00;;;;;;5095813;28;20126;-78
2022/03/25 10:43:59;;;;;;;4.43;4.03;;;21.70;33.00;;;;;;5095571;28;20404;-78
2022/03/25 10:46:41;;;;;;;5.90;4.40;;;21.70;33.00;;;;;;5095451;28;20052;-79
2022/03/25 10:49:10;;;;;;;4.20;3.80;;;21.70;33.00;;;;;;5060465;28;20411;-79
2022/03/25 10:51:38;;;;;;;4.25;3.85;;;21.70;33.00;;;;;;5060533;28;20060;-78
2022/03/25 10:54:09;;;;;;;4.07;3.78;;;21.70;33.00;;;;;;5077108;28;20040;-78
2022/03/25 10:56:48;;;;;;;5.40;4.28;;;21.70;33.00;;;;;;5077158;28;20054;-78
2022/03/25 10:59:23;;;;;;;4.47;3.80;;;21.70;33.00;;;;;;5077212;28;20060;-78
2022/03/25 11:01:51;;;;;;;4.88;3.72;;;21.80;33.00;;;;;;5095255;28;20052;-78
2022/03/25 11:04:17;;;;;;;4.78;4.32;;;21.70;33.00;;;;;;5095142;28;20052;-78
2022/03/25 11:06:45;;;;;;;4.30;3.92;;;21.80;33.00;;;;;;5076633;28;20063;-78
2022/03/25 11:09:11;;;;;;;4.28;3.88;;;21.80;33.00;;;;;;5076384;28;20094;-78
2022/03/25 11:11:38;;;;;;;4.53;4.13;;;21.70;33.50;;;;;;5095291;28;20058;-79
2022/03/25 11:14:04;;;;;;;4.97;4.53;;;21.70;33.00;;;;;;5076616;28;20094;-78
2022/03/25 11:16:33;;;;;;;4.82;4.20;;;21.70;33.00;;;;;;5076548;28;20060;-78
2022/03/25 11:18:59;;;;;;;4.50;4.10;;;21.70;33.00;;;;;;5095014;28;20146;-78
2022/03/25 11:21:27;;;;;;;4.60;4.20;;;21.70;33.00;;;;;;5094693;28;20144;-78
2022/03/25 11:23:55;;;;;;;4.82;4.30;;;21.70;33.00;;;;;;5095004;28;20106;-78
2022/03/25 11:26:24;;;;;;;3.95;3.55;;;21.70;33.00;;;;;;5094812;28;20067;-79
2022/03/25 11:28:54;;;;;;;3.80;3.50;;;21.70;33.00;;;;;;5076879;28;20052;-78
2022/03/25 11:31:19;;;;;;;4.40;3.90;;;21.80;33.10;;;;;;5094676;28;20047;-79
2022/03/25 11:34:11;;;;;;;3.78;3.47;;;21.70;33.00;;;;;;5076663;28;20071;-79
2022/03/25 11:36:41;;;;;;;4.53;4.07;;;21.70;33.00;;;;;;5094662;28;20044;-78
2022/03/25 11:39:24;;;;;;;4.25;3.88;;;21.70;33.00;;;;;;5093374;28;20047;-79
2022/03/25 11:41:51;;;;;;;4.47;4.07;;;21.70;33.00;;;;;;5094497;28;20048;-79
2022/03/25 11:44:19;;;;;;;5.10;4.60;;;21.80;33.00;;;;;;5094677;28;20419;-78
2022/03/25 11:46:59;;;;;;;4.50;4.10;;;21.70;33.00;;;;;;5092906;28;20060;-78
2022/03/25 11:49:27;;;;;;;4.53;4.13;;;21.80;33.10;;;;;;5076232;28;20052;-79
2022/03/25 11:51:53;;;;;;;4.78;4.38;;;21.80;33.00;;;;;;5076559;28;20055;-78
2022/03/25 11:54:41;;;;;;;3.75;3.42;;;21.70;33.00;;;;;;5094561;28;20479;-78
2022/03/25 11:57:25;;;;;;;5.00;4.45;;;21.80;33.10;;;;;;5058847;28;20077;-78
2022/03/25 11:59:56;;;;;;;4.53;3.65;;;21.70;33.00;;;;;;5059295;28;20052;-79
2022/03/25 12:02:23;;;;;;;;;;;21.70;33.00;;;;;;5094828;28;20129;-78
2022/03/25 12:04:48;;;;;;;3.72;3.42;;;21.80;33.10;;;;;;5074999;28;19951;-78
2022/03/25 12:07:16;;;;;;;4.03;3.60;;;21.80;33.00;;;;;;5094390;28;20106;-78
2022/03/25 12:09:45;;;;;;;4.03;3.63;;;21.80;33.00;;;;;;5094695;28;20073;-78
2022/03/25 12:12:11;;;;;;;5.18;4.10;;;21.70;33.00;;;;;;5094241;28;20051;-78
2022/03/25 12:14:56;;;;;;;4.45;4.05;;;21.70;33.00;;;;;;5076202;28;20059;-78
2022/03/25 12:17:24;;;;;;;4.25;3.83;;;21.70;33.00;;;;;;5074882;28;20056;-79
2022/03/25 12:19:51;;;;;;;4.07;3.67;;;21.80;33.10;;;;;;5059506;28;20400;-78
2022/03/25 12:22:20;;;;;;;4.38;3.97;;;21.70;33.00;;;;;;5074682;28;20059;-79
2022/03/25 12:24:51;;;;;;;4.45;4.05;;;21.70;33.00;;;;;;5076355;28;20055;-78
2022/03/25 12:27:18;;;;;;;3.95;3.55;;;21.70;33.00;;;;;;5094059;28;20500;-78
2022/03/25 12:29:48;;;;;;;4.35;3.83;;;21.70;33.00;;;;;;5093798;28;20051;-78
2022/03/25 12:32:16;;;;;;;4.53;4.13;;;21.70;33.10;;;;;;5073970;28;20056;-78
2022/03/25 12:34:58;;;;;;;4.60;4.20;;;21.70;33.10;;;;;;5075784;28;20044;-78
2022/03/25 12:37:32;;;;;;;4.22;3.83;;;21.70;33.10;;;;;;5093660;28;20079;-79
2022/03/25 12:40:11;;;;;;;4.38;3.97;;;21.70;33.10;;;;;;5058836;28;20090;-78
2022/03/25 12:42:37;;;;;;;4.43;3.78;;;21.70;33.10;;;;;;5075338;28;20502;-78
2022/03/25 12:45:03;;;;;;;4.07;3.75;;;21.70;33.10;;;;;;5093754;28;20079;-78
2022/03/25 12:47:35;;;;;;;4.30;3.90;;;21.70;33.10;;;;;;5075524;28;20051;-78
2022/03/25 12:50:02;;;;;;;5.13;4.10;;;21.70;33.10;;;;;;5093210;28;20614;-78
2022/03/25 12:52:28;;;;;;;4.18;3.80;;;21.70;33.10;;;;;;5093768;28;20044;-78
2022/03/25 12:54:54;;;;;;;4.20;3.80;;;21.70;33.10;;;;;;5093298;28;20549;-78